createdAt,value
2019-01-26T00:07:09.707Z,75.56
2019-01-26T00:09:40.970Z,76.07
2019-01-26T00:12:10.550Z,75.90
2019-01-26T00:15:19.704Z,76.53
2019-01-26T00:20:51.641Z,75.52
2019-01-26T00:23:21.048Z,76.19
2019-01-26T00:26:29.818Z,75.69
2019-01-26T00:32:01.752Z,76.07
2019-01-26T00:43:55.522Z,75.67
2019-01-26T00:46:28.502Z,75.04
2019-01-26T00:48:56.665Z,76.08
2019-01-26T00:52:05.677Z,75.72
2019-01-26T00:57:46.120Z,76.19
2019-01-26T01:00:55.244Z,75.16
2019-01-26T01:04:04.111Z,75.23
2019-01-26T01:12:49.332Z,75.89
2019-01-26T01:15:19.564Z,75.38
2019-01-26T01:21:23.258Z,75.90
2019-01-26T01:23:54.325Z,75.60
2019-01-26T01:30:16.088Z,75.86
2019-01-26T01:32:45.917Z,76.14
2019-01-26T01:35:55.741Z,75.85
2019-01-26T01:38:28.135Z,75.10
2019-01-26T02:17:19.995Z,75.49
2019-01-26T02:22:58.789Z,76.34
2019-01-26T02:28:43.396Z,75.59
2019-01-26T02:31:53.001Z,75.52
2019-01-26T02:37:59.315Z,75.44
2019-01-26T02:40:28.625Z,74.89
2019-01-26T02:46:19.157Z,76.22
2019-01-26T02:55:05.968Z,76.37
2019-01-26T02:57:35.971Z,76.16
2019-01-26T03:00:10.464Z,76.62
2019-01-26T03:03:19.360Z,76.33
2019-01-26T03:06:32.996Z,76.10
2019-01-26T03:09:04.159Z,76.15
2019-01-26T03:12:13.141Z,75.79
2019-01-26T03:14:42.920Z,76.11
2019-01-26T03:17:51.832Z,76.45
2019-01-26T03:32:13.918Z,76.11
2019-01-26T03:41:02.152Z,75.91
2019-01-26T03:44:11.121Z,76.18
2019-01-26T03:46:42.007Z,76.04
2019-01-26T03:49:11.521Z,76.00
2019-01-26T03:51:41.035Z,75.53
2019-01-26T03:54:12.281Z,75.93
2019-01-26T03:56:42.255Z,75.26
2019-01-26T04:02:12.200Z,74.99
2019-01-26T04:08:09.392Z,74.76
2019-01-26T04:13:53.355Z,75.51
2019-01-26T04:16:22.994Z,75.22
2019-01-26T04:22:27.814Z,75.35
2019-01-26T04:28:14.577Z,75.74
2019-01-26T04:31:23.780Z,75.65
2019-01-26T04:34:32.733Z,75.61
2019-01-26T04:37:02.178Z,75.38
2019-01-26T04:39:31.941Z,75.23
2019-01-26T04:42:01.388Z,74.21
2019-01-26T04:44:50.663Z,75.24
2019-01-26T04:50:55.406Z,74.99
2019-01-26T05:09:05.081Z,75.17
2019-01-26T05:11:35.343Z,74.94
2019-01-26T05:14:05.223Z,74.47
2019-01-26T05:17:14.285Z,75.24
2019-01-26T05:22:58.123Z,75.08
2019-01-26T05:25:28.506Z,74.88
2019-01-26T05:28:37.441Z,74.58
2019-01-26T05:43:21.585Z,75.79
2019-01-26T05:45:51.052Z,74.85
2019-01-26T05:48:21.392Z,75.25
2019-01-26T05:51:30.126Z,75.11
2019-01-26T05:57:12.569Z,75.17
2019-01-26T06:06:00.727Z,75.36
2019-01-26T06:08:49.365Z,75.21
2019-01-26T06:17:16.362Z,75.62
2019-01-26T06:19:45.940Z,75.88
2019-01-26T06:22:54.629Z,75.75
2019-01-26T06:31:33.924Z,75.54
2019-01-26T06:37:13.504Z,75.88
2019-01-26T06:39:43.093Z,75.71
2019-01-26T06:42:52.160Z,75.92
2019-01-26T06:45:22.873Z,75.56
2019-01-26T06:47:52.344Z,75.58
2019-01-26T06:53:19.896Z,75.64
2019-01-26T06:55:49.328Z,76.02
2019-01-26T06:58:19.022Z,75.34
2019-01-26T07:00:48.730Z,76.24
2019-01-26T07:06:46.879Z,75.58
2019-01-26T07:12:22.897Z,75.73
2019-01-26T07:17:50.850Z,75.56
2019-01-26T07:20:20.386Z,75.35
2019-01-26T07:22:50.185Z,74.99
2019-01-26T07:25:59.924Z,74.22
2019-01-26T07:34:44.119Z,75.05
2019-01-26T07:40:28.477Z,74.41
2019-01-26T07:43:37.545Z,74.71
2019-01-26T07:46:46.799Z,74.94
2019-01-26T07:55:33.076Z,74.86
2019-01-26T07:58:02.528Z,74.73
2019-01-26T08:01:12.225Z,75.00
2019-01-26T08:03:42.046Z,75.01
2019-01-26T08:06:51.182Z,74.53
2019-01-26T08:12:45.712Z,74.97
2019-01-26T08:17:56.849Z,74.81
2019-01-26T08:21:05.712Z,74.14
2019-01-26T08:24:15.204Z,74.25
2019-01-26T08:35:46.435Z,73.63
2019-01-26T08:38:16.793Z,74.73
2019-01-26T08:40:47.481Z,74.18
2019-01-26T08:43:17.114Z,74.43
2019-01-26T08:45:46.899Z,74.23
2019-01-26T08:54:07.926Z,73.49
2019-01-26T08:56:37.849Z,74.08
2019-01-26T08:59:08.405Z,73.27
2019-01-26T09:01:38.034Z,73.44
2019-01-26T09:04:24.993Z,73.52
2019-01-26T09:06:58.776Z,73.04
2019-01-26T09:09:28.294Z,73.75
2019-01-26T09:11:57.866Z,73.16
2019-01-26T09:14:27.412Z,73.53
2019-01-26T09:16:57.412Z,73.14
2019-01-26T09:19:26.802Z,73.41
2019-01-26T09:21:56.308Z,73.87
2019-01-26T09:24:26.759Z,73.52
2019-01-26T09:26:56.283Z,73.01
2019-01-26T09:29:26.436Z,73.86
2019-01-26T09:31:56.000Z,72.71
2019-01-26T09:34:26.240Z,71.96
2019-01-26T09:36:55.736Z,71.93
2019-01-26T09:42:59.579Z,70.94
2019-01-26T09:45:29.112Z,72.53
2019-01-26T09:47:59.192Z,71.99
2019-01-26T09:50:28.738Z,72.06
2019-01-26T09:52:59.179Z,71.48
2019-01-26T09:55:28.613Z,70.11
2019-01-26T09:57:58.034Z,71.03
2019-01-26T10:00:27.491Z,70.55
2019-01-26T10:03:36.303Z,71.27
2019-01-26T10:09:41.126Z,70.48
2019-01-26T10:12:10.981Z,71.08
2019-01-26T10:14:40.730Z,71.35
2019-01-26T10:17:10.831Z,70.88
2019-01-26T10:19:40.247Z,70.77
2019-01-26T10:22:12.123Z,70.99
2019-01-26T10:24:41.579Z,70.58
2019-01-26T10:33:23.724Z,71.42
2019-01-26T10:39:01.193Z,71.16
2019-01-26T10:47:58.180Z,71.50
2019-01-26T10:50:28.200Z,69.73
2019-01-26T10:52:59.033Z,70.99
2019-01-26T10:55:29.727Z,70.34
2019-01-26T10:57:59.174Z,70.41
2019-01-26T11:00:28.768Z,70.54
2019-01-26T11:02:58.193Z,70.80
2019-01-26T11:05:27.794Z,70.71
2019-01-26T11:07:57.712Z,71.77
2019-01-26T11:10:27.263Z,70.82
2019-01-26T11:12:57.923Z,70.89
2019-01-26T11:15:27.487Z,70.68
2019-01-26T11:17:57.086Z,70.59
2019-01-26T11:21:06.882Z,69.79
2019-01-26T11:23:38.420Z,71.31
2019-01-26T11:26:08.549Z,70.56
2019-01-26T11:28:38.645Z,71.11
2019-01-26T11:31:09.376Z,70.86
2019-01-26T11:33:39.285Z,70.33
2019-01-26T11:36:08.790Z,69.80
2019-01-26T11:39:00.473Z,69.84
2019-01-26T11:41:30.608Z,69.79
2019-01-26T11:44:00.191Z,69.89
2019-01-26T11:46:45.176Z,69.78
2019-01-26T11:49:15.201Z,70.24
2019-01-26T11:52:07.713Z,69.34
2019-01-26T11:54:43.932Z,69.37
2019-01-26T11:57:25.121Z,69.52
2019-01-26T12:00:16.589Z,69.14
2019-01-26T12:03:07.495Z,69.20
2019-01-26T12:05:56.125Z,69.51
2019-01-26T12:17:39.554Z,69.92
2019-01-26T12:20:13.011Z,70.40
2019-01-26T12:22:43.543Z,70.62
2019-01-26T12:25:13.369Z,70.99
2019-01-26T12:27:43.680Z,70.71
2019-01-26T12:30:14.477Z,71.19
2019-01-26T12:32:45.729Z,71.52
2019-01-26T12:35:27.263Z,71.07
2019-01-26T12:41:06.776Z,70.88
2019-01-26T12:43:36.490Z,72.06
2019-01-26T12:46:16.261Z,71.82
2019-01-26T12:48:47.003Z,72.02
2019-01-26T12:51:16.538Z,71.78
2019-01-26T12:53:46.734Z,72.05
2019-01-26T12:56:18.539Z,71.82
2019-01-26T12:58:48.041Z,71.49
2019-01-26T13:01:18.348Z,71.46
2019-01-26T13:03:47.998Z,71.28
2019-01-26T13:06:17.559Z,71.51
2019-01-26T13:08:47.052Z,71.42
2019-01-26T13:11:23.296Z,71.24
2019-01-26T13:13:53.127Z,71.34
2019-01-26T13:16:22.539Z,71.98
2019-01-26T13:19:36.807Z,71.50
2019-01-26T13:28:15.514Z,71.63
2019-01-26T13:30:45.053Z,71.86
2019-01-26T13:33:54.623Z,71.89
2019-01-26T13:36:25.142Z,72.53
2019-01-26T13:38:55.455Z,72.45
2019-01-26T13:41:27.317Z,72.22
2019-01-26T13:43:57.160Z,71.97
2019-01-26T13:46:26.668Z,71.69
2019-01-26T13:48:56.954Z,71.99
2019-01-26T13:51:27.193Z,72.37
2019-01-26T13:53:56.758Z,71.86
2019-01-26T13:56:28.948Z,71.91
2019-01-26T14:02:17.050Z,72.41
2019-01-26T14:04:47.909Z,71.11
2019-01-26T14:07:56.770Z,72.63
2019-01-26T14:10:27.098Z,72.35
2019-01-26T14:12:56.728Z,71.38
2019-01-26T14:16:06.450Z,71.58
2019-01-26T14:21:52.617Z,72.37
2019-01-26T14:25:01.472Z,71.58
2019-01-26T14:28:11.129Z,72.02
2019-01-26T14:34:03.708Z,71.97
2019-01-26T14:36:34.394Z,71.49
2019-01-26T14:39:07.953Z,71.77
2019-01-26T14:41:37.363Z,71.05
2019-01-26T14:44:07.938Z,71.83
2019-01-26T14:46:37.968Z,72.52
2019-01-26T14:49:07.632Z,71.99
2019-01-26T14:51:37.544Z,71.55
2019-01-26T14:54:07.595Z,71.30
2019-01-26T14:56:38.454Z,70.92
2019-01-26T14:59:08.101Z,71.52
2019-01-26T15:01:38.247Z,71.42
2019-01-26T15:04:07.881Z,71.03
2019-01-26T15:06:37.346Z,71.54
2019-01-26T15:09:09.394Z,71.65
2019-01-26T15:11:39.016Z,71.24
2019-01-26T15:14:08.711Z,71.60
2019-01-26T15:16:38.176Z,70.56
2019-01-26T15:19:10.478Z,71.46
2019-01-26T15:24:49.043Z,70.91
2019-01-26T15:30:32.958Z,71.94
2019-01-26T15:33:02.724Z,72.13
2019-01-26T15:35:32.273Z,71.68
2019-01-26T15:38:02.168Z,71.81
2019-01-26T15:40:32.182Z,71.63
2019-01-26T15:43:01.899Z,71.25
2019-01-26T15:45:33.938Z,71.05
2019-01-26T15:48:03.657Z,71.09
2019-01-26T15:50:33.049Z,71.96
2019-01-26T15:53:04.952Z,71.37
2019-01-26T15:58:30.497Z,71.59
2019-01-26T16:01:00.645Z,70.87
2019-01-26T16:04:09.654Z,71.70
2019-01-26T16:09:42.491Z,71.52
2019-01-26T16:12:12.220Z,71.34
2019-01-26T16:14:41.891Z,70.83
2019-01-26T16:17:11.400Z,70.69
2019-01-26T16:19:41.233Z,70.67
2019-01-26T16:22:10.684Z,71.04
2019-01-26T16:24:40.464Z,71.90
2019-01-26T16:27:50.118Z,71.05
2019-01-26T16:30:38.760Z,70.21
2019-01-26T16:44:58.250Z,70.98
2019-01-26T16:47:27.706Z,70.25
2019-01-26T16:49:57.888Z,70.17
2019-01-26T16:52:27.905Z,70.22
2019-01-26T16:54:57.442Z,70.62
2019-01-26T16:58:06.391Z,70.72
2019-01-26T17:04:07.453Z,70.23
2019-01-26T17:06:38.107Z,70.34
2019-01-26T17:09:10.002Z,70.59
2019-01-26T17:11:39.775Z,70.68
2019-01-26T17:14:13.066Z,70.97
2019-01-26T17:16:44.212Z,69.96
2019-01-26T17:19:16.792Z,70.16
2019-01-26T17:21:46.725Z,70.44
2019-01-26T17:24:16.333Z,70.06
2019-01-26T17:26:52.729Z,70.67
2019-01-26T17:29:22.361Z,70.95
2019-01-26T17:31:52.441Z,70.45
2019-01-26T17:34:23.253Z,69.93
2019-01-26T17:36:53.055Z,70.38
2019-01-26T17:39:22.813Z,69.95
2019-01-26T17:41:52.222Z,70.39
2019-01-26T17:44:21.830Z,70.28
2019-01-26T17:46:51.352Z,70.46
2019-01-26T17:49:21.184Z,70.24
2019-01-26T17:51:51.701Z,70.24
2019-01-26T17:54:21.166Z,70.33
2019-01-26T17:56:50.989Z,70.48
2019-01-26T17:59:20.803Z,70.03
2019-01-26T18:01:50.569Z,71.17
2019-01-26T18:04:20.229Z,70.30
2019-01-26T18:06:50.065Z,71.11
2019-01-26T18:09:19.924Z,71.34
2019-01-26T18:11:49.619Z,71.05
2019-01-26T18:14:19.700Z,69.69
2019-01-26T18:16:51.540Z,70.79
2019-01-26T18:19:23.079Z,71.44
2019-01-26T18:22:32.713Z,71.26
2019-01-26T18:28:43.709Z,70.91
2019-01-26T18:33:58.922Z,71.01
2019-01-26T18:42:55.280Z,70.89
2019-01-26T18:51:29.856Z,70.58
2019-01-26T18:54:38.721Z,71.00
2019-01-26T18:57:48.290Z,70.67
2019-01-26T19:00:22.034Z,70.77
2019-01-26T19:02:55.700Z,71.00
2019-01-26T19:11:32.003Z,70.81
2019-01-26T19:14:42.230Z,71.50
2019-01-26T19:20:21.560Z,70.76
2019-01-26T19:23:10.699Z,70.81
2019-01-26T19:25:41.639Z,70.22
2019-01-26T19:28:11.802Z,70.04
2019-01-26T19:30:43.732Z,70.89
2019-01-26T19:33:52.824Z,70.28
2019-01-26T19:36:25.469Z,70.39
2019-01-26T19:38:56.139Z,70.24
2019-01-26T19:41:26.339Z,70.25
2019-01-26T19:43:55.798Z,69.97
2019-01-26T19:46:26.113Z,70.26
2019-01-26T19:48:55.972Z,70.50
2019-01-26T19:51:25.647Z,70.38
2019-01-26T19:53:56.968Z,70.85
2019-01-26T19:56:28.073Z,70.16
2019-01-26T19:58:58.959Z,70.70
2019-01-26T20:01:28.724Z,71.67
2019-01-26T20:03:59.454Z,71.39
2019-01-26T20:07:08.368Z,71.17
2019-01-26T20:12:55.108Z,70.35
2019-01-26T20:15:25.027Z,70.73
2019-01-26T20:17:55.284Z,71.62
2019-01-26T20:20:27.978Z,70.99
2019-01-26T20:23:37.629Z,70.83
2019-01-26T20:26:46.961Z,70.76
2019-01-26T20:35:08.091Z,70.85
2019-01-26T20:37:39.962Z,70.97
2019-01-26T20:40:13.857Z,70.94
2019-01-26T20:42:44.563Z,71.23
2019-01-26T20:45:19.947Z,71.28
2019-01-26T20:47:50.667Z,71.51
2019-01-26T20:50:22.815Z,72.09
2019-01-26T20:52:54.051Z,70.68
2019-01-26T20:58:49.249Z,71.92
2019-01-26T21:01:19.265Z,71.05
2019-01-26T21:03:49.547Z,71.12
2019-01-26T21:06:22.441Z,70.78
2019-01-26T21:08:53.106Z,70.66
2019-01-26T21:11:23.617Z,71.08
2019-01-26T21:13:54.823Z,70.38
2019-01-26T21:16:25.634Z,71.11
2019-01-26T21:22:18.417Z,70.86
2019-01-26T21:24:49.500Z,71.11
2019-01-26T21:27:19.450Z,71.02
2019-01-26T21:29:49.263Z,71.04
2019-01-26T21:32:59.943Z,70.84
2019-01-26T21:35:35.844Z,71.37
2019-01-26T21:38:06.045Z,70.75
2019-01-26T21:41:15.735Z,71.34
2019-01-26T21:43:57.975Z,71.26
2019-01-26T21:52:40.910Z,70.96
2019-01-26T21:55:07.594Z,71.09
2019-01-26T21:57:37.085Z,71.19
2019-01-26T22:00:12.244Z,70.90
2019-01-26T22:02:41.941Z,70.94
2019-01-26T22:05:13.127Z,70.79
2019-01-26T22:07:43.014Z,70.95
2019-01-26T22:10:14.758Z,70.78
2019-01-26T22:12:44.430Z,71.21
2019-01-26T22:15:17.269Z,71.18
2019-01-26T22:17:46.817Z,71.00
2019-01-26T22:20:24.305Z,71.20
2019-01-26T22:22:55.047Z,70.83
2019-01-26T22:25:24.618Z,70.77
2019-01-26T22:27:56.604Z,71.06
2019-01-26T22:30:28.507Z,71.24
2019-01-26T22:36:34.517Z,71.12
2019-01-26T22:43:31.269Z,70.76
2019-01-26T22:49:10.171Z,70.58
2019-01-26T22:51:39.957Z,71.30
2019-01-26T22:54:09.612Z,71.21
2019-01-26T22:56:39.047Z,71.15
2019-01-26T22:59:08.940Z,71.52
2019-01-26T23:05:46.154Z,70.93
2019-01-26T23:08:21.952Z,71.82
2019-01-26T23:11:38.513Z,71.84
2019-01-26T23:14:46.009Z,71.77
2019-01-26T23:17:53.450Z,72.01
2019-01-26T23:21:02.042Z,72.08
2019-01-26T23:24:09.852Z,71.92
2019-01-26T23:27:17.352Z,71.67
2019-01-26T23:30:26.187Z,72.14
2019-01-26T23:36:11.763Z,72.24
2019-01-26T23:38:41.391Z,71.95
2019-01-26T23:41:11.278Z,72.15
2019-01-26T23:55:51.998Z,72.29
2019-01-26T23:58:40.712Z,72.71
